sensor_id;sensor_type;location;lat;lon;timestamp;pressure;altitude;pressure_sealevel;temperature
62706;BMP280;51050;51.784;9.372;2022-11-11T00:01:17;101743.09;;;16.04
62706;BMP280;51050;51.784;9.372;2022-11-11T00:03:43;101737.31;;;16.06
62706;BMP280;51050;51.784;9.372;2022-11-11T00:06:12;101734.53;;;16.06
62706;BMP280;51050;51.784;9.372;2022-11-11T00:08:38;101739.22;;;16.05
62706;BMP280;51050;51.784;9.372;2022-11-11T00:11:04;101731.78;;;16.06
62706;BMP280;51050;51.784;9.372;2022-11-11T00:13:30;101730.13;;;16.05
62706;BMP280;51050;51.784;9.372;2022-11-11T00:15:55;101741.16;;;16.05
62706;BMP280;51050;51.784;9.372;2022-11-11T00:18:20;101745.59;;;16.06
62706;BMP280;51050;51.784;9.372;2022-11-11T00:21:07;101737.59;;;16.04
62706;BMP280;51050;51.784;9.372;2022-11-11T00:24:29;101737.59;;;16.04
62706;BMP280;51050;51.784;9.372;2022-11-11T00:27:13;101739.22;;;16.05
62706;BMP280;51050;51.784;9.372;2022-11-11T00:29:39;101738.41;;;16.05
62706;BMP280;51050;51.784;9.372;2022-11-11T00:32:04;101741.44;;;16.03
62706;BMP280;51050;51.784;9.372;2022-11-11T00:34:48;101741.44;;;16.03
62706;BMP280;51050;51.784;9.372;2022-11-11T00:37:33;101747.81;;;16.04
62706;BMP280;51050;51.784;9.372;2022-11-11T00:39:58;101746.16;;;16.03
62706;BMP280;51050;51.784;9.372;2022-11-11T00:42:23;101748.63;;;16.04
62706;BMP280;51050;51.784;9.372;2022-11-11T00:44:48;101749.75;;;16.03
62706;BMP280;51050;51.784;9.372;2022-11-11T00:47:14;101745.31;;;16.02
62706;BMP280;51050;51.784;9.372;2022-11-11T00:49:58;101753.59;;;16.02
62706;BMP280;51050;51.784;9.372;2022-11-11T00:52:44;101767.41;;;16.02
62706;BMP280;51050;51.784;9.372;2022-11-11T00:55:09;101761.06;;;16.02
62706;BMP280;51050;51.784;9.372;2022-11-11T00:57:34;101757.47;;;16.01
62706;BMP280;51050;51.784;9.372;2022-11-11T00:59:59;101759.13;;;16.02
62706;BMP280;51050;51.784;9.372;2022-11-11T01:02:24;101771.28;;;16.01
62706;BMP280;51050;51.784;9.372;2022-11-11T01:04:49;101769.34;;;16.02
62706;BMP280;51050;51.784;9.372;2022-11-11T01:07:15;101762.19;;;16.01
62706;BMP280;51050;51.784;9.372;2022-11-11T01:09:40;101763.00;;;16.01
62706;BMP280;51050;51.784;9.372;2022-11-11T01:12:05;101757.47;;;16.01
62706;BMP280;51050;51.784;9.372;2022-11-11T01:14:30;101764.09;;;16.00
62706;BMP280;51050;51.784;9.372;2022-11-11T01:16:55;101758.59;;;16.00
62706;BMP280;51050;51.784;9.372;2022-11-11T01:19:20;101759.69;;;15.99
62706;BMP280;51050;51.784;9.372;2022-11-11T01:21:45;101756.94;;;15.99
62706;BMP280;51050;51.784;9.372;2022-11-11T01:24:11;101760.53;;;16.00
62706;BMP280;51050;51.784;9.372;2022-11-11T01:26:36;101754.16;;;15.99
62706;BMP280;51050;51.784;9.372;2022-11-11T01:29:01;101754.16;;;15.99
62706;BMP280;51050;51.784;9.372;2022-11-11T01:31:26;101754.16;;;15.99
62706;BMP280;51050;51.784;9.372;2022-11-11T01:33:51;101755.31;;;15.98
62706;BMP280;51050;51.784;9.372;2022-11-11T01:36:17;101752.53;;;15.98
62706;BMP280;51050;51.784;9.372;2022-11-11T01:38:43;101740.34;;;15.99
62706;BMP280;51050;51.784;9.372;2022-11-11T01:41:13;101738.75;;;15.98
62706;BMP280;51050;51.784;9.372;2022-11-11T01:44:00;101751.41;;;15.99
62706;BMP280;51050;51.784;9.372;2022-11-11T01:46:27;101747.03;;;15.98
62706;BMP280;51050;51.784;9.372;2022-11-11T01:48:55;101752.53;;;15.98
62706;BMP280;51050;51.784;9.372;2022-11-11T01:51:43;101754.47;;;15.98
62706;BMP280;51050;51.784;9.372;2022-11-11T01:54:21;101752.53;;;15.98
62706;BMP280;51050;51.784;9.372;2022-11-11T01:56:49;101760.00;;;15.98
62706;BMP280;51050;51.784;9.372;2022-11-11T01:59:16;101753.66;;;15.97
62706;BMP280;51050;51.784;9.372;2022-11-11T02:01:43;101757.25;;;15.98
62706;BMP280;51050;51.784;9.372;2022-11-11T02:04:08;101760.28;;;15.96
62706;BMP280;51050;51.784;9.372;2022-11-11T02:06:53;101771.34;;;15.96
62706;BMP280;51050;51.784;9.372;2022-11-11T02:09:20;101775.75;;;15.97
62706;BMP280;51050;51.784;9.372;2022-11-11T02:11:46;101781.28;;;15.97
62706;BMP280;51050;51.784;9.372;2022-11-11T02:14:31;101778.78;;;15.96
62706;BMP280;51050;51.784;9.372;2022-11-11T02:17:03;101789.00;;;15.95
62706;BMP280;51050;51.784;9.372;2022-11-11T02:19:48;101793.41;;;15.96
62706;BMP280;51050;51.784;9.372;2022-11-11T02:22:19;101785.41;;;15.95
62706;BMP280;51050;51.784;9.372;2022-11-11T02:24:47;101783.47;;;15.95
62706;BMP280;51050;51.784;9.372;2022-11-11T02:27:13;101781.81;;;15.94
62706;BMP280;51050;51.784;9.372;2022-11-11T02:29:40;101784.03;;;15.97
62706;BMP280;51050;51.784;9.372;2022-11-11T02:32:05;101763.31;;;15.95
62706;BMP280;51050;51.784;9.372;2022-11-11T02:34:31;101771.59;;;15.95
62706;BMP280;51050;51.784;9.372;2022-11-11T02:36:56;101764.44;;;15.94
62706;BMP280;51050;51.784;9.372;2022-11-11T02:39:22;101767.19;;;15.94
62706;BMP280;51050;51.784;9.372;2022-11-11T02:41:48;101769.97;;;15.94
62706;BMP280;51050;51.784;9.372;2022-11-11T02:44:25;101766.38;;;15.93
62706;BMP280;51050;51.784;9.372;2022-11-11T02:46:50;101761.66;;;15.94
62706;BMP280;51050;51.784;9.372;2022-11-11T02:49:16;101761.94;;;15.92
62706;BMP280;51050;51.784;9.372;2022-11-11T02:51:41;101755.59;;;15.92
62706;BMP280;51050;51.784;9.372;2022-11-11T02:54:06;101758.09;;;15.93
62706;BMP280;51050;51.784;9.372;2022-11-11T02:56:31;101749.78;;;15.93
62706;BMP280;51050;51.784;9.372;2022-11-11T02:59:15;101756.44;;;15.92
62706;BMP280;51050;51.784;9.372;2022-11-11T03:01:40;101761.13;;;15.92
62706;BMP280;51050;51.784;9.372;2022-11-11T03:04:05;101766.66;;;15.92
62706;BMP280;51050;51.784;9.372;2022-11-11T03:06:30;101768.88;;;15.89
62706;BMP280;51050;51.784;9.372;2022-11-11T03:08:55;101770.22;;;15.92
62706;BMP280;51050;51.784;9.372;2022-11-11T03:11:21;101765.03;;;15.91
62706;BMP280;51050;51.784;9.372;2022-11-11T03:13:55;101776.88;;;15.91
62706;BMP280;51050;51.784;9.372;2022-11-11T03:16:20;101792.63;;;15.91
62706;BMP280;51050;51.784;9.372;2022-11-11T03:19:06;101804.47;;;15.91
62706;BMP280;51050;51.784;9.372;2022-11-11T03:21:31;101803.69;;;15.91
62706;BMP280;51050;51.784;9.372;2022-11-11T03:23:56;101810.00;;;15.91
62706;BMP280;51050;51.784;9.372;2022-11-11T03:26:21;101804.47;;;15.91
62706;BMP280;51050;51.784;9.372;2022-11-11T03:28:46;101798.16;;;15.91
62706;BMP280;51050;51.784;9.372;2022-11-11T03:31:11;101799.25;;;15.89
62706;BMP280;51050;51.784;9.372;2022-11-11T03:33:37;101809.22;;;15.91
62706;BMP280;51050;51.784;9.372;2022-11-11T03:36:02;101812.75;;;15.91
62706;BMP280;51050;51.784;9.372;2022-11-11T03:38:27;101819.41;;;15.90
62706;BMP280;51050;51.784;9.372;2022-11-11T03:40:53;101812.25;;;15.89
62706;BMP280;51050;51.784;9.372;2022-11-11T03:43:21;101817.78;;;15.89
62706;BMP280;51050;51.784;9.372;2022-11-11T03:45:47;101816.94;;;15.88
62706;BMP280;51050;51.784;9.372;2022-11-11T03:48:12;101807.00;;;15.87
62706;BMP280;51050;51.784;9.372;2022-11-11T03:50:38;101807.00;;;15.87
62706;BMP280;51050;51.784;9.372;2022-11-11T03:53:05;101812.53;;;15.87
62706;BMP280;51050;51.784;9.372;2022-11-11T03:55:30;101800.66;;;15.87
62706;BMP280;51050;51.784;9.372;2022-11-11T03:57:55;101806.19;;;15.87
62706;BMP280;51050;51.784;9.372;2022-11-11T04:00:21;101803.41;;;15.87
62706;BMP280;51050;51.784;9.372;2022-11-11T04:02:47;101796.78;;;15.88
62706;BMP280;51050;51.784;9.372;2022-11-11T04:05:31;101809.75;;;15.87
62706;BMP280;51050;51.784;9.372;2022-11-11T04:08:16;101730.44;;;15.44
62706;BMP280;51050;51.784;9.372;2022-11-11T04:11:10;101812.81;;;15.86
62706;BMP280;51050;51.784;9.372;2022-11-11T04:13:37;101804.53;;;15.86
62706;BMP280;51050;51.784;9.372;2022-11-11T04:16:21;101799.81;;;15.86
62706;BMP280;51050;51.784;9.372;2022-11-11T04:18:46;101787.94;;;15.86
62706;BMP280;51050;51.784;9.372;2022-11-11T04:21:30;101783.53;;;15.85
62706;BMP280;51050;51.784;9.372;2022-11-11T04:24:08;101781.88;;;15.84
62706;BMP280;51050;51.784;9.372;2022-11-11T04:26:53;101779.66;;;15.86
62706;BMP280;51050;51.784;9.372;2022-11-11T04:29:18;101782.72;;;15.84
62706;BMP280;51050;51.784;9.372;2022-11-11T04:31:53;101792.91;;;15.84
62706;BMP280;51050;51.784;9.372;2022-11-11T04:34:37;101794.59;;;15.85
62706;BMP280;51050;51.784;9.372;2022-11-11T04:37:02;101796.50;;;15.84
62706;BMP280;51050;51.784;9.372;2022-11-11T04:39:27;101794.59;;;15.85
62706;BMP280;51050;51.784;9.372;2022-11-11T04:42:11;101789.88;;;15.85
62706;BMP280;51050;51.784;9.372;2022-11-11T04:44:36;101791.00;;;15.84
62706;BMP280;51050;51.784;9.372;2022-11-11T04:47:20;101784.38;;;15.85
62706;BMP280;51050;51.784;9.372;2022-11-11T04:49:45;101781.88;;;15.84
62706;BMP280;51050;51.784;9.372;2022-11-11T04:52:10;101795.69;;;15.84
62706;BMP280;51050;51.784;9.372;2022-11-11T04:54:54;101790.16;;;15.84
62706;BMP280;51050;51.784;9.372;2022-11-11T04:57:42;101789.34;;;15.83
62706;BMP280;51050;51.784;9.372;2022-11-11T05:00:08;101786.56;;;15.83
62706;BMP280;51050;51.784;9.372;2022-11-11T05:02:33;101796.78;;;15.83
62706;BMP280;51050;51.784;9.372;2022-11-11T05:05:17;101792.38;;;15.87
62706;BMP280;51050;51.784;9.372;2022-11-11T05:07:42;101800.94;;;15.85
62706;BMP280;51050;51.784;9.372;2022-11-11T05:10:26;101803.13;;;15.88
62706;BMP280;51050;51.784;9.372;2022-11-11T05:12:51;101798.94;;;15.91
62706;BMP280;51050;51.784;9.372;2022-11-11T05:15:17;101797.56;;;15.94
62706;BMP280;51050;51.784;9.372;2022-11-11T05:18:00;101789.56;;;15.97
62706;BMP280;51050;51.784;9.372;2022-11-11T05:20:48;101791.22;;;15.98
62706;BMP280;51050;51.784;9.372;2022-11-11T05:23:32;101794.22;;;16.02
62706;BMP280;51050;51.784;9.372;2022-11-11T05:26:16;101792.81;;;16.04
62706;BMP280;51050;51.784;9.372;2022-11-11T05:28:41;101807.19;;;16.06
62706;BMP280;51050;51.784;9.372;2022-11-11T05:31:06;101803.31;;;16.07
62706;BMP280;51050;51.784;9.372;2022-11-11T05:33:31;101803.00;;;16.09
62706;BMP280;51050;51.784;9.372;2022-11-11T05:35:57;101807.41;;;16.10
62706;BMP280;51050;51.784;9.372;2022-11-11T05:38:22;101810.19;;;16.10
62706;BMP280;51050;51.784;9.372;2022-11-11T05:40:47;101805.47;;;16.10
62706;BMP280;51050;51.784;9.372;2022-11-11T05:43:12;101809.91;;;16.11
62706;BMP280;51050;51.784;9.372;2022-11-11T05:45:39;101809.63;;;16.13
62706;BMP280;51050;51.784;9.372;2022-11-11T05:48:04;101811.56;;;16.12
62706;BMP280;51050;51.784;9.372;2022-11-11T05:50:29;101814.31;;;16.12
62706;BMP280;51050;51.784;9.372;2022-11-11T05:52:55;101814.31;;;16.12
62706;BMP280;51050;51.784;9.372;2022-11-11T05:55:20;101818.72;;;16.13
62706;BMP280;51050;51.784;9.372;2022-11-11T05:57:45;101817.91;;;16.13
62706;BMP280;51050;51.784;9.372;2022-11-11T06:00:10;101828.13;;;16.12
62706;BMP280;51050;51.784;9.372;2022-11-11T06:02:36;101822.59;;;16.12
62706;BMP280;51050;51.784;9.372;2022-11-11T06:05:02;101827.28;;;16.12
62706;BMP280;51050;51.784;9.372;2022-11-11T06:07:27;101834.47;;;16.13
62706;BMP280;51050;51.784;9.372;2022-11-11T06:09:52;101839.19;;;16.12
62706;BMP280;51050;51.784;9.372;2022-11-11T06:12:40;101843.03;;;16.11
62706;BMP280;51050;51.784;9.372;2022-11-11T06:15:25;101838.34;;;16.12
62706;BMP280;51050;51.784;9.372;2022-11-11T06:17:51;101844.97;;;16.11
62706;BMP280;51050;51.784;9.372;2022-11-11T06:20:16;101848.56;;;16.11
62706;BMP280;51050;51.784;9.372;2022-11-11T06:22:41;101844.97;;;16.11
62706;BMP280;51050;51.784;9.372;2022-11-11T06:25:22;101849.69;;;16.10
62706;BMP280;51050;51.784;9.372;2022-11-11T06:28:06;101862.66;;;16.10
62706;BMP280;51050;51.784;9.372;2022-11-11T06:30:31;101865.41;;;16.10
62706;BMP280;51050;51.784;9.372;2022-11-11T06:32:56;101863.75;;;16.09
62706;BMP280;51050;51.784;9.372;2022-11-11T06:35:21;101866.53;;;16.09
62706;BMP280;51050;51.784;9.372;2022-11-11T06:37:46;101872.06;;;16.09
62706;BMP280;51050;51.784;9.372;2022-11-11T06:40:11;101876.75;;;16.08
62706;BMP280;51050;51.784;9.372;2022-11-11T06:42:37;101873.97;;;16.08
62706;BMP280;51050;51.784;9.372;2022-11-11T06:45:02;101891.09;;;16.10
62706;BMP280;51050;51.784;9.372;2022-11-11T06:47:27;101882.28;;;16.08
62706;BMP280;51050;51.784;9.372;2022-11-11T06:49:52;101882.28;;;16.08
62706;BMP280;51050;51.784;9.372;2022-11-11T06:52:18;101888.94;;;16.07
62706;BMP280;51050;51.784;9.372;2022-11-11T06:54:43;101888.94;;;16.07
62706;BMP280;51050;51.784;9.372;2022-11-11T06:57:08;101884.50;;;16.06
62706;BMP280;51050;51.784;9.372;2022-11-11T06:59:33;101887.28;;;16.06
62706;BMP280;51050;51.784;9.372;2022-11-11T07:01:58;101876.22;;;16.06
62706;BMP280;51050;51.784;9.372;2022-11-11T07:04:23;101881.75;;;16.06
62706;BMP280;51050;51.784;9.372;2022-11-11T07:06:49;101879.00;;;16.06
62706;BMP280;51050;51.784;9.372;2022-11-11T07:09:14;101890.03;;;16.06
62706;BMP280;51050;51.784;9.372;2022-11-11T07:11:39;101889.22;;;16.06
62706;BMP280;51050;51.784;9.372;2022-11-11T07:14:04;101890.88;;;16.07
62706;BMP280;51050;51.784;9.372;2022-11-11T07:16:29;101899.16;;;16.07
62706;BMP280;51050;51.784;9.372;2022-11-11T07:18:54;101901.09;;;16.06
62706;BMP280;51050;51.784;9.372;2022-11-11T07:21:19;101894.47;;;16.07
62706;BMP280;51050;51.784;9.372;2022-11-11T07:23:45;101907.13;;;16.08
62706;BMP280;51050;51.784;9.372;2022-11-11T07:26:10;101909.91;;;16.08
62706;BMP280;51050;51.784;9.372;2022-11-11T07:28:35;101913.47;;;16.09
62706;BMP280;51050;51.784;9.372;2022-11-11T07:31:00;101913.22;;;16.10
62706;BMP280;51050;51.784;9.372;2022-11-11T07:33:25;101913.22;;;16.10
62706;BMP280;51050;51.784;9.372;2022-11-11T07:35:50;101914.88;;;16.11
62706;BMP280;51050;51.784;9.372;2022-11-11T07:38:15;101905.47;;;16.12
62706;BMP280;51050;51.784;9.372;2022-11-11T07:40:41;101902.72;;;16.12
62706;BMP280;51050;51.784;9.372;2022-11-11T07:43:06;101893.59;;;16.12
62706;BMP280;51050;51.784;9.372;2022-11-11T07:45:31;101898.00;;;16.13
62706;BMP280;51050;51.784;9.372;2022-11-11T07:47:56;101899.66;;;16.14
62706;BMP280;51050;51.784;9.372;2022-11-11T07:50:21;101901.59;;;16.13
62706;BMP280;51050;51.784;9.372;2022-11-11T07:52:47;101915.13;;;16.15
62706;BMP280;51050;51.784;9.372;2022-11-11T07:55:12;101923.41;;;16.15
62706;BMP280;51050;51.784;9.372;2022-11-11T07:57:37;101922.59;;;16.14
62706;BMP280;51050;51.784;9.372;2022-11-11T08:00:03;101930.88;;;16.14
62706;BMP280;51050;51.784;9.372;2022-11-11T08:02:29;101928.94;;;16.15
62706;BMP280;51050;51.784;9.372;2022-11-11T08:04:54;101933.66;;;16.14
62706;BMP280;51050;51.784;9.372;2022-11-11T08:07:19;101944.69;;;16.14
62706;BMP280;51050;51.784;9.372;2022-11-11T08:09:44;101945.53;;;16.15
62706;BMP280;51050;51.784;9.372;2022-11-11T08:12:09;101947.47;;;16.14
62706;BMP280;51050;51.784;9.372;2022-11-11T08:14:53;101936.41;;;16.14
62706;BMP280;51050;51.784;9.372;2022-11-11T08:17:18;101936.41;;;16.14
62706;BMP280;51050;51.784;9.372;2022-11-11T08:19:43;101944.69;;;16.14
62706;BMP280;51050;51.784;9.372;2022-11-11T08:22:08;101949.13;;;16.15
62706;BMP280;51050;51.784;9.372;2022-11-11T08:24:34;101960.16;;;16.15
62706;BMP280;51050;51.784;9.372;2022-11-11T08:26:59;101952.16;;;16.14
62706;BMP280;51050;51.784;9.372;2022-11-11T08:29:24;101955.75;;;16.14
62706;BMP280;51050;51.784;9.372;2022-11-11T08:31:50;101959.34;;;16.15
62706;BMP280;51050;51.784;9.372;2022-11-11T08:34:16;101963.22;;;16.14
62706;BMP280;51050;51.784;9.372;2022-11-11T08:36:41;101958.50;;;16.14
62706;BMP280;51050;51.784;9.372;2022-11-11T08:39:06;101956.84;;;16.13
62706;BMP280;51050;51.784;9.372;2022-11-11T08:41:31;101963.22;;;16.14
62706;BMP280;51050;51.784;9.372;2022-11-11T08:43:56;101959.63;;;16.13
62706;BMP280;51050;51.784;9.372;2022-11-11T08:46:23;101961.28;;;16.14
62706;BMP280;51050;51.784;9.372;2022-11-11T08:48:49;101963.22;;;16.14
62706;BMP280;51050;51.784;9.372;2022-11-11T08:51:14;101975.09;;;16.14
62706;BMP280;51050;51.784;9.372;2022-11-11T08:53:40;101959.63;;;16.13
62706;BMP280;51050;51.784;9.372;2022-11-11T08:56:05;101971.50;;;16.14
62706;BMP280;51050;51.784;9.372;2022-11-11T08:58:30;101968.72;;;16.14
62706;BMP280;51050;51.784;9.372;2022-11-11T09:00:56;101959.34;;;16.15
62706;BMP280;51050;51.784;9.372;2022-11-11T09:03:21;101964.03;;;16.14
62706;BMP280;51050;51.784;9.372;2022-11-11T09:05:46;101966.78;;;16.14
62706;BMP280;51050;51.784;9.372;2022-11-11T09:08:12;101964.88;;;16.15
62706;BMP280;51050;51.784;9.372;2022-11-11T09:10:37;101970.06;;;16.16
62706;BMP280;51050;51.784;9.372;2022-11-11T09:13:03;101981.13;;;16.16
62706;BMP280;51050;51.784;9.372;2022-11-11T09:15:28;101977.25;;;16.17
62706;BMP280;51050;51.784;9.372;2022-11-11T09:17:54;101968.97;;;16.17
62706;BMP280;51050;51.784;9.372;2022-11-11T09:20:19;101971.47;;;16.19
62706;BMP280;51050;51.784;9.372;2022-11-11T09:22:45;101965.09;;;16.18
62706;BMP280;51050;51.784;9.372;2022-11-11T09:25:11;101973.94;;;16.20
62706;BMP280;51050;51.784;9.372;2022-11-11T09:27:36;101969.53;;;16.19
62706;BMP280;51050;51.784;9.372;2022-11-11T09:30:01;101972.84;;;16.21
62706;BMP280;51050;51.784;9.372;2022-11-11T09:32:27;101981.97;;;16.22
62706;BMP280;51050;51.784;9.372;2022-11-11T09:34:52;101986.38;;;16.23
62706;BMP280;51050;51.784;9.372;2022-11-11T09:37:19;101988.31;;;16.22
62706;BMP280;51050;51.784;9.372;2022-11-11T09:39:44;101981.69;;;16.23
62706;BMP280;51050;51.784;9.372;2022-11-11T09:44:51;101974.50;;;16.22
62706;BMP280;51050;51.784;9.372;2022-11-11T09:47:36;101970.63;;;16.23
62706;BMP280;51050;51.784;9.372;2022-11-11T09:50:04;101969.81;;;16.23
62706;BMP280;51050;51.784;9.372;2022-11-11T09:55:01;101967.03;;;16.23
62706;BMP280;51050;51.784;9.372;2022-11-11T10:00:02;101968.16;;;16.22
62706;BMP280;51050;51.784;9.372;2022-11-11T10:02:40;101965.38;;;16.22
62706;BMP280;51050;51.784;9.372;2022-11-11T10:05:08;101960.69;;;16.22
62706;BMP280;51050;51.784;9.372;2022-11-11T10:07:39;101955.97;;;16.23
62706;BMP280;51050;51.784;9.372;2022-11-11T10:10:29;101949.63;;;16.22
62706;BMP280;51050;51.784;9.372;2022-11-11T10:12:55;101946.88;;;16.22
62706;BMP280;51050;51.784;9.372;2022-11-11T10:15:20;101955.97;;;16.23
62706;BMP280;51050;51.784;9.372;2022-11-11T10:17:52;101948.81;;;16.22
62706;BMP280;51050;51.784;9.372;2022-11-11T10:25:35;101958.19;;;16.21
62706;BMP280;51050;51.784;9.372;2022-11-11T10:28:03;101967.31;;;16.21
62706;BMP280;51050;51.784;9.372;2022-11-11T10:30:29;101965.66;;;16.20
62706;BMP280;51050;51.784;9.372;2022-11-11T10:33:02;101957.38;;;16.20
62706;BMP280;51050;51.784;9.372;2022-11-11T10:35:30;101961.78;;;16.21
62706;BMP280;51050;51.784;9.372;2022-11-11T10:40:43;101967.31;;;16.21
62706;BMP280;51050;51.784;9.372;2022-11-11T10:43:31;101963.72;;;16.21
62706;BMP280;51050;51.784;9.372;2022-11-11T10:48:28;101975.59;;;16.21
62706;BMP280;51050;51.784;9.372;2022-11-11T10:50:56;101965.66;;;16.20
62706;BMP280;51050;51.784;9.372;2022-11-11T10:55:54;101978.38;;;16.21
62706;BMP280;51050;51.784;9.372;2022-11-11T11:00:51;101980.03;;;16.22
62706;BMP280;51050;51.784;9.372;2022-11-11T11:03:25;101976.16;;;16.23
62706;BMP280;51050;51.784;9.372;2022-11-11T11:08:20;101973.91;;;16.25
62706;BMP280;51050;51.784;9.372;2022-11-11T11:10:49;101974.75;;;16.26
62706;BMP280;51050;51.784;9.372;2022-11-11T11:13:20;101973.91;;;16.25
62706;BMP280;51050;51.784;9.372;2022-11-11T11:15:48;101970.03;;;16.26
62706;BMP280;51050;51.784;9.372;2022-11-11T11:18:18;101980.00;;;16.27
62706;BMP280;51050;51.784;9.372;2022-11-11T11:23:40;101978.06;;;16.28
62706;BMP280;51050;51.784;9.372;2022-11-11T11:26:06;101976.13;;;16.28
62706;BMP280;51050;51.784;9.372;2022-11-11T11:28:31;101976.13;;;16.28
62706;BMP280;51050;51.784;9.372;2022-11-11T11:30:59;101970.31;;;16.30
62706;BMP280;51050;51.784;9.372;2022-11-11T11:33:25;101972.25;;;16.30
62706;BMP280;51050;51.784;9.372;2022-11-11T11:35:50;101955.69;;;16.30
62706;BMP280;51050;51.784;9.372;2022-11-11T11:38:15;101954.84;;;16.29
62706;BMP280;51050;51.784;9.372;2022-11-11T11:43:45;101952.91;;;16.30
62706;BMP280;51050;51.784;9.372;2022-11-11T12:09:40;101935.22;;;16.31
62706;BMP280;51050;51.784;9.372;2022-11-11T12:23:04;101928.88;;;16.30
62706;BMP280;51050;51.784;9.372;2022-11-11T12:31:15;101931.16;;;16.13
62706;BMP280;51050;51.784;9.372;2022-11-11T12:33:54;101924.94;;;15.82
62706;BMP280;51050;51.784;9.372;2022-11-11T12:36:24;101930.69;;;15.96
62706;BMP280;51050;51.784;9.372;2022-11-11T12:43:53;101926.44;;;16.18
62706;BMP280;51050;51.784;9.372;2022-11-11T12:51:43;101925.81;;;16.32
62706;BMP280;51050;51.784;9.372;2022-11-11T12:57:00;101921.09;;;16.37
62706;BMP280;51050;51.784;9.372;2022-11-11T13:04:52;101913.31;;;16.44
62706;BMP280;51050;51.784;9.372;2022-11-11T13:07:26;101911.09;;;16.46
62706;BMP280;51050;51.784;9.372;2022-11-11T13:10:07;101914.69;;;16.47
62706;BMP280;51050;51.784;9.372;2022-11-11T13:12:40;101911.34;;;16.50
62706;BMP280;51050;51.784;9.372;2022-11-11T13:15:13;101919.34;;;16.51
62706;BMP280;51050;51.784;9.372;2022-11-11T13:17:39;101911.34;;;16.50
62706;BMP280;51050;51.784;9.372;2022-11-11T13:20:16;101920.44;;;16.50
62706;BMP280;51050;51.784;9.372;2022-11-11T13:22:43;101910.78;;;16.53
62706;BMP280;51050;51.784;9.372;2022-11-11T13:25:10;101906.06;;;16.53
62706;BMP280;51050;51.784;9.372;2022-11-11T13:27:39;101900.53;;;16.53
62706;BMP280;51050;51.784;9.372;2022-11-11T13:32:43;101901.91;;;16.56
62706;BMP280;51050;51.784;9.372;2022-11-11T13:35:16;101901.91;;;16.56
62706;BMP280;51050;51.784;9.372;2022-11-11T13:37:42;101907.44;;;16.56
62706;BMP280;51050;51.784;9.372;2022-11-11T13:40:08;101906.34;;;16.57
62706;BMP280;51050;51.784;9.372;2022-11-11T13:42:48;101906.34;;;16.57
62706;BMP280;51050;51.784;9.372;2022-11-11T13:45:23;101909.94;;;16.57
62706;BMP280;51050;51.784;9.372;2022-11-11T13:47:50;101910.75;;;16.58
62706;BMP280;51050;51.784;9.372;2022-11-11T13:50:31;101916.78;;;16.60
62706;BMP280;51050;51.784;9.372;2022-11-11T13:53:02;101909.59;;;16.59
62706;BMP280;51050;51.784;9.372;2022-11-11T13:55:29;101915.13;;;16.59
62706;BMP280;51050;51.784;9.372;2022-11-11T13:57:55;101915.97;;;16.59
62706;BMP280;51050;51.784;9.372;2022-11-11T14:02:45;101918.47;;;16.61
62706;BMP280;51050;51.784;9.372;2022-11-11T14:05:18;101915.13;;;16.59
62706;BMP280;51050;51.784;9.372;2022-11-11T14:10:09;101914.34;;;16.63
62706;BMP280;51050;51.784;9.372;2022-11-11T14:12:35;101919.03;;;16.63
62706;BMP280;51050;51.784;9.372;2022-11-11T14:15:01;101917.09;;;16.63
62706;BMP280;51050;51.784;9.372;2022-11-11T14:17:31;101906.88;;;16.64
62706;BMP280;51050;51.784;9.372;2022-11-11T14:19:57;101916.81;;;16.65
62706;BMP280;51050;51.784;9.372;2022-11-11T14:22:29;101914.88;;;16.66
62706;BMP280;51050;51.784;9.372;2022-11-11T14:24:55;101906.31;;;16.67
62706;BMP280;51050;51.784;9.372;2022-11-11T14:27:33;101912.13;;;16.66
62706;BMP280;51050;51.784;9.372;2022-11-11T14:29:58;101919.59;;;16.65
62706;BMP280;51050;51.784;9.372;2022-11-11T14:40:03;101918.75;;;16.64
62706;BMP280;51050;51.784;9.372;2022-11-11T14:44:59;101914.88;;;16.66
62706;BMP280;51050;51.784;9.372;2022-11-11T14:47:36;101921.50;;;16.64
62706;BMP280;51050;51.784;9.372;2022-11-11T14:52:49;101918.47;;;16.66
62706;BMP280;51050;51.784;9.372;2022-11-11T14:55:20;101929.53;;;16.66
62706;BMP280;51050;51.784;9.372;2022-11-11T14:57:49;101931.47;;;16.66
62706;BMP280;51050;51.784;9.372;2022-11-11T15:00:19;101931.19;;;16.67
62706;BMP280;51050;51.784;9.372;2022-11-11T15:02:46;101925.94;;;16.66
62706;BMP280;51050;51.784;9.372;2022-11-11T15:05:15;101918.47;;;16.66
62706;BMP280;51050;51.784;9.372;2022-11-11T15:12:56;101914.88;;;16.66
62706;BMP280;51050;51.784;9.372;2022-11-11T15:15:34;101925.66;;;16.67
62706;BMP280;51050;51.784;9.372;2022-11-11T15:18:12;101926.44;;;16.68
62706;BMP280;51050;51.784;9.372;2022-11-11T15:23:14;101923.69;;;16.68
62706;BMP280;51050;51.784;9.372;2022-11-11T15:30:50;101911.84;;;16.67
62706;BMP280;51050;51.784;9.372;2022-11-11T15:33:20;101919.81;;;16.69
62706;BMP280;51050;51.784;9.372;2022-11-11T15:35:50;101915.94;;;16.70
62706;BMP280;51050;51.784;9.372;2022-11-11T15:38:19;101918.69;;;16.70
62706;BMP280;51050;51.784;9.372;2022-11-11T15:40:48;101915.66;;;16.71
62706;BMP280;51050;51.784;9.372;2022-11-11T15:43:16;101922.28;;;16.70
62706;BMP280;51050;51.784;9.372;2022-11-11T15:45:42;101920.34;;;16.71
62706;BMP280;51050;51.784;9.372;2022-11-11T15:48:17;101918.41;;;16.71
62706;BMP280;51050;51.784;9.372;2022-11-11T15:50:43;101921.19;;;16.71
62706;BMP280;51050;51.784;9.372;2022-11-11T15:53:10;101907.34;;;16.71
62706;BMP280;51050;51.784;9.372;2022-11-11T15:55:35;101910.97;;;16.72
62706;BMP280;51050;51.784;9.372;2022-11-11T15:58:16;101927.00;;;16.70
62706;BMP280;51050;51.784;9.372;2022-11-11T16:00:42;101923.13;;;16.71
62706;BMP280;51050;51.784;9.372;2022-11-11T16:03:15;101919.53;;;16.70
62706;BMP280;51050;51.784;9.372;2022-11-11T16:05:42;101912.88;;;16.71
62706;BMP280;51050;51.784;9.372;2022-11-11T16:08:08;101920.06;;;16.72
62706;BMP280;51050;51.784;9.372;2022-11-11T16:10:35;101918.13;;;16.73